Time;durP1;ratioP1;P1;durP2;ratioP2;P2;SDS_P1;SDS_P2;PMS_P1;PMS_P2;Temp;Humidity;BMP_temperature;BMP_pressure;BME280_temperature;BME280_humidity;BME280_pressure;Samples;Min_cycle;Max_cycle;Signal;HPM_P1;HPM_P2
2022/06/27 00:00:34;;;;;;;6.63;4.75;;;16.90;99.90;;;;;;5048114;28;20029;-76
2022/06/27 00:03:00;;;;;;;7.60;5.32;;;16.80;99.90;;;;;;5060024;28;20458;-77
2022/06/27 00:05:34;;;;;;;6.78;5.47;;;16.90;99.90;;;;;;5046023;28;20041;-76
2022/06/27 00:08:00;;;;;;;9.45;6.32;;;16.90;99.90;;;;;;5035547;28;20037;-78
2022/06/27 00:10:26;;;;;;;6.72;5.25;;;16.90;99.90;;;;;;5042459;28;20029;-77
2022/06/27 00:12:52;;;;;;;8.50;6.30;;;17.00;99.90;;;;;;5047604;28;20030;-75
2022/06/27 00:15:18;;;;;;;9.15;6.10;;;17.10;99.90;;;;;;5036322;28;20064;-75
2022/06/27 00:17:45;;;;;;;10.15;6.25;;;17.10;99.90;;;;;;5053037;28;20041;-80
2022/06/27 00:20:12;;;;;;;9.15;6.03;;;17.20;99.90;;;;;;5059916;28;20375;-76
2022/06/27 00:22:39;;;;;;;7.07;4.90;;;17.10;99.90;;;;;;5058001;28;20037;-76
2022/06/27 00:25:06;;;;;;;8.07;5.20;;;17.10;99.90;;;;;;5052312;28;20034;-79
2022/06/27 00:27:32;;;;;;;6.30;4.30;;;17.00;99.90;;;;;;5048283;28;20040;-77
2022/06/27 00:29:58;;;;;;;8.35;4.40;;;17.00;99.90;;;;;;5046466;28;20029;-78
2022/06/27 00:32:26;;;;;;;9.30;4.80;;;17.10;99.90;;;;;;5049260;28;20041;-77
2022/06/27 00:34:53;;;;;;;6.90;4.85;;;17.00;99.90;;;;;;5048049;28;20040;-79
2022/06/27 00:37:19;;;;;;;6.35;4.45;;;17.10;99.90;;;;;;5049488;28;20056;-80
2022/06/27 00:39:48;;;;;;;8.90;4.28;;;17.10;99.90;;;;;;5052037;28;20397;-79
2022/06/27 00:42:14;;;;;;;7.93;3.95;;;17.10;99.90;;;;;;5047301;28;20041;-79
2022/06/27 00:44:43;;;;;;;7.80;4.72;;;17.10;99.90;;;;;;5045386;28;20041;-79
2022/06/27 00:47:12;;;;;;;7.68;4.72;;;17.10;99.90;;;;;;5043552;28;20037;-79
2022/06/27 00:49:38;;;;;;;9.07;5.13;;;17.10;99.90;;;;;;5036750;28;20029;-79
2022/06/27 00:52:10;;;;;;;8.50;5.10;;;17.20;99.90;;;;;;5031017;28;20042;-79
2022/06/27 00:54:41;;;;;;;7.80;4.65;;;17.20;99.90;;;;;;5067311;28;20051;-80
2022/06/27 00:57:10;;;;;;;8.70;5.43;;;17.30;99.90;;;;;;5054484;28;20052;-79
2022/06/27 00:59:36;;;;;;;6.75;4.57;;;17.30;99.90;;;;;;5058808;28;20459;-79
2022/06/27 01:02:03;;;;;;;9.13;4.78;;;17.30;99.90;;;;;;5039616;28;20030;-78
2022/06/27 01:04:29;;;;;;;4.97;3.78;;;17.30;99.90;;;;;;5038719;28;20049;-81
2022/06/27 01:06:57;;;;;;;8.40;4.10;;;17.20;99.90;;;;;;5047495;28;20036;-76
2022/06/27 01:09:24;;;;;;;5.82;3.38;;;17.20;99.90;;;;;;5040305;28;20025;-79
2022/06/27 01:11:50;;;;;;;6.30;3.65;;;17.20;99.90;;;;;;5036472;28;20364;-78
2022/06/27 01:14:18;;;;;;;5.80;3.03;;;17.20;99.90;;;;;;5054916;28;20056;-80
2022/06/27 01:16:45;;;;;;;4.03;2.83;;;17.20;99.90;;;;;;5050615;28;20033;-79
2022/06/27 01:19:14;;;;;;;5.07;2.78;;;17.10;99.90;;;;;;5040811;28;20037;-82
2022/06/27 01:21:52;;;;;;;7.60;3.20;;;17.00;99.90;;;;;;5053051;28;20048;-85
2022/06/27 01:24:20;;;;;;;6.85;3.67;;;17.00;99.90;;;;;;5042436;28;20033;-86
2022/06/27 01:26:48;;;;;;;5.90;3.10;;;17.00;99.90;;;;;;5050136;28;20053;-83
2022/06/27 01:29:17;;;;;;;4.18;3.17;;;17.00;99.90;;;;;;5049999;28;20055;-80
2022/06/27 01:31:44;;;;;;;6.05;3.22;;;17.00;99.90;;;;;;5039185;28;20049;-79
2022/06/27 01:34:12;;;;;;;6.43;3.60;;;17.00;99.90;;;;;;5039534;28;20042;-79
2022/06/27 01:36:41;;;;;;;6.38;3.92;;;17.00;99.90;;;;;;5047036;28;20037;-83
2022/06/27 01:39:11;;;;;;;5.75;4.07;;;17.00;99.90;;;;;;5037654;28;20037;-82
2022/06/27 01:41:51;;;;;;;7.60;4.10;;;17.10;99.90;;;;;;5041348;28;20037;-80
2022/06/27 01:44:20;;;;;;;7.18;4.60;;;17.10;99.90;;;;;;5052352;28;20045;-80
2022/06/27 01:46:49;;;;;;;9.48;5.85;;;17.00;99.90;;;;;;5036847;28;20048;-83
2022/06/27 01:49:16;;;;;;;7.97;5.35;;;17.10;99.90;;;;;;5035376;28;20490;-83
2022/06/27 01:51:47;;;;;;;10.20;7.30;;;17.10;99.90;;;;;;5037049;28;20042;-81
2022/06/27 01:54:16;;;;;;;11.52;7.47;;;17.10;99.90;;;;;;5032381;28;20030;-82
2022/06/27 01:56:44;;;;;;;10.95;6.72;;;17.10;99.90;;;;;;5044789;28;20056;-81
2022/06/27 01:59:12;;;;;;;11.10;7.72;;;17.20;99.90;;;;;;5049344;28;20041;-80
2022/06/27 02:01:43;;;;;;;12.23;7.57;;;17.20;99.90;;;;;;5035519;28;20042;-81
2022/06/27 02:04:11;;;;;;;15.13;7.90;;;17.20;99.90;;;;;;5034120;28;20045;-81
2022/06/27 02:06:39;;;;;;;12.90;7.85;;;17.20;99.90;;;;;;5032614;28;20060;-82
2022/06/27 02:09:10;;;;;;;14.65;8.88;;;17.30;99.90;;;;;;5032687;28;20387;-81
2022/06/27 02:11:37;;;;;;;13.13;8.35;;;17.30;99.90;;;;;;5038459;28;20486;-81
2022/06/27 02:14:04;;;;;;;15.02;8.75;;;17.40;99.90;;;;;;5032918;28;20041;-81
2022/06/27 02:16:31;;;;;;;13.88;8.35;;;17.40;99.90;;;;;;5040599;28;20048;-81
2022/06/27 02:18:57;;;;;;;18.95;8.57;;;17.30;99.90;;;;;;5038463;28;20037;-81
2022/06/27 02:21:26;;;;;;;14.27;8.27;;;17.30;99.90;;;;;;5058719;28;20052;-80
2022/06/27 02:23:54;;;;;;;14.27;9.27;;;17.30;99.90;;;;;;5032862;28;20037;-81
2022/06/27 02:26:28;;;;;;;17.00;9.07;;;17.30;99.90;;;;;;5033462;28;20048;-80
2022/06/27 02:28:55;;;;;;;13.05;8.43;;;17.40;99.90;;;;;;5033181;28;20041;-81
2022/06/27 02:31:23;;;;;;;15.38;9.13;;;17.30;99.90;;;;;;5043087;28;20044;-81
2022/06/27 02:33:51;;;;;;;14.80;8.93;;;17.30;99.90;;;;;;5040258;28;20039;-80
2022/06/27 02:36:33;;;;;;;14.10;8.32;;;17.20;99.90;;;;;;5042276;28;20386;-81
2022/06/27 02:39:02;;;;;;;14.98;8.98;;;17.30;99.90;;;;;;5033713;28;20505;-81
2022/06/27 02:41:32;;;;;;;11.27;8.18;;;17.20;99.90;;;;;;5056172;28;20512;-81
2022/06/27 02:44:18;;;;;;;16.33;8.10;;;17.20;99.90;;;;;;5049743;28;20025;-81
2022/06/27 02:46:45;;;;;;;13.05;8.13;;;17.10;99.90;;;;;;5033179;28;20037;-80
2022/06/27 02:49:12;;;;;;;20.58;9.02;;;17.10;99.90;;;;;;5032714;28;20045;-82
2022/06/27 02:51:46;;;;;;;20.02;9.38;;;17.10;99.90;;;;;;5036369;28;20391;-81
2022/06/27 02:54:19;;;;;;;19.60;9.70;;;17.10;99.90;;;;;;5043701;28;20041;-80
2022/06/27 02:57:05;;;;;;;19.27;8.63;;;17.10;99.90;;;;;;5048419;28;20395;-82
2022/06/27 02:59:37;;;;;;;18.55;9.55;;;17.10;99.90;;;;;;5048793;28;20045;-80
2022/06/27 03:02:07;;;;;;;22.10;9.07;;;17.10;99.90;;;;;;5032641;28;20038;-79
2022/06/27 03:04:55;;;;;;;;;;;17.10;99.90;;;;;;5043948;28;20068;-80
2022/06/27 03:07:21;;;;;;;16.63;9.57;;;17.20;99.90;;;;;;5037057;28;19916;-80
2022/06/27 03:09:48;;;;;;;19.80;10.27;;;17.10;99.90;;;;;;5043455;28;20482;-81
2022/06/27 03:12:15;;;;;;;22.63;9.68;;;17.20;99.90;;;;;;5031565;28;20372;-80
2022/06/27 03:14:42;;;;;;;16.52;10.35;;;17.30;99.90;;;;;;5032264;28;20049;-80
2022/06/27 03:17:08;;;;;;;21.75;12.00;;;17.30;99.90;;;;;;5030730;28;20041;-80
2022/06/27 03:19:56;;;;;;;29.52;12.90;;;17.30;99.90;;;;;;5040926;28;20044;-80
2022/06/27 03:22:34;;;;;;;25.17;12.55;;;17.30;99.90;;;;;;5034357;28;20042;-80
2022/06/27 03:25:00;;;;;;;23.52;12.70;;;17.30;99.90;;;;;;5047316;28;20056;-80
2022/06/27 03:27:27;;;;;;;27.52;12.52;;;17.40;99.90;;;;;;5041960;28;20236;-79
2022/06/27 03:29:54;;;;;;;20.77;11.60;;;17.40;99.90;;;;;;5073476;28;20037;-79
2022/06/27 03:32:20;;;;;;;23.33;12.35;;;17.30;99.90;;;;;;5050192;28;20048;-79
2022/06/27 03:34:57;;;;;;;23.73;11.57;;;17.20;99.90;;;;;;5047428;28;20033;-77
2022/06/27 03:37:24;;;;;;;21.83;12.75;;;17.20;99.90;;;;;;5057034;28;20049;-78
2022/06/27 03:39:50;;;;;;;19.20;10.82;;;17.20;99.90;;;;;;5050887;28;20044;-78
2022/06/27 03:42:16;;;;;;;19.48;11.10;;;17.10;99.90;;;;;;5038986;28;20041;-78
2022/06/27 03:44:43;;;;;;;25.40;12.38;;;17.10;99.90;;;;;;5036865;28;20048;-77
2022/06/27 03:47:09;;;;;;;22.15;10.48;;;17.10;99.90;;;;;;5035174;28;20054;-77
2022/06/27 03:50:01;;;;;;;24.65;12.98;;;17.10;99.90;;;;;;5029841;28;20037;-78
2022/06/27 03:52:35;;;;;;;22.75;11.98;;;17.20;99.90;;;;;;5033068;28;20049;-77
2022/06/27 03:55:02;;;;;;;28.33;13.63;;;17.30;99.90;;;;;;5044113;28;20410;-78
2022/06/27 03:57:28;;;;;;;23.27;13.30;;;17.40;99.90;;;;;;5033254;28;20390;-77
2022/06/27 03:59:54;;;;;;;27.77;13.70;;;17.50;99.90;;;;;;5036589;28;20045;-77
2022/06/27 04:02:22;;;;;;;29.38;14.35;;;17.50;99.90;;;;;;5055281;28;20034;-80
2022/06/27 04:05:11;;;;;;;27.95;15.00;;;17.50;99.90;;;;;;5043143;28;20036;-82
2022/06/27 04:07:38;;;;;;;23.65;14.85;;;17.60;99.90;;;;;;5033294;28;20049;-81
2022/06/27 04:10:07;;;;;;;31.35;15.75;;;17.70;99.90;;;;;;5039904;28;20052;-81
2022/06/27 04:12:34;;;;;;;25.55;16.45;;;17.70;99.90;;;;;;5028595;28;20041;-81
2022/06/27 04:15:19;;;;;;;36.50;21.60;;;17.70;99.90;;;;;;5041705;28;20048;-81
2022/06/27 04:18:11;;;;;;;56.35;27.15;;;17.70;99.90;;;;;;5050524;28;20473;-80
2022/06/27 04:20:55;;;;;;;63.30;30.20;;;17.70;99.90;;;;;;5039030;28;20379;-79
2022/06/27 04:23:26;;;;;;;82.43;34.47;;;17.70;99.90;;;;;;5036611;28;20041;-80
2022/06/27 04:26:11;;;;;;;68.30;32.03;;;17.80;99.90;;;;;;5040773;28;20049;-80
2022/06/27 04:28:37;;;;;;;79.20;34.45;;;17.80;99.90;;;;;;5018252;28;20045;-80
2022/06/27 04:31:04;;;;;;;85.18;35.75;;;17.70;99.90;;;;;;5045414;28;20423;-81
2022/06/27 04:33:30;;;;;;;79.53;36.95;;;17.80;99.90;;;;;;5060462;28;20033;-81
2022/06/27 04:35:56;;;;;;;91.22;39.00;;;17.80;99.90;;;;;;5036937;28;20041;-82
2022/06/27 04:38:23;;;;;;;129.05;41.35;;;17.80;99.90;;;;;;5036109;28;20041;-82
2022/06/27 04:40:55;;;;;;;111.25;40.40;;;17.90;99.90;;;;;;5042817;28;20041;-81
2022/06/27 04:43:22;;;;;;;116.45;42.03;;;17.90;99.90;;;;;;5042937;28;20154;-82
2022/06/27 04:45:49;;;;;;;96.38;38.38;;;17.90;99.90;;;;;;5050177;28;20053;-82
2022/06/27 04:48:55;;;;;;;103.93;39.10;;;17.90;99.90;;;;;;5037943;28;20037;-82
2022/06/27 04:51:22;;;;;;;90.30;37.65;;;18.00;99.90;;;;;;5040278;28;20064;-81
2022/06/27 04:53:49;;;;;;;64.10;32.40;;;18.00;99.90;;;;;;5043567;28;20041;-83
2022/06/27 04:56:15;;;;;;;74.60;33.28;;;17.90;99.90;;;;;;5039757;28;20049;-81
2022/06/27 04:58:42;;;;;;;83.05;34.83;;;17.90;99.90;;;;;;5033703;28;20037;-81
2022/06/27 05:01:11;;;;;;;44.67;25.02;;;17.90;99.90;;;;;;5048714;28;20045;-81
2022/06/27 05:03:38;;;;;;;42.53;24.65;;;17.90;99.90;;;;;;5046832;28;20048;-80
2022/06/27 05:06:10;;;;;;;37.63;20.85;;;17.80;99.90;;;;;;5031543;28;20541;-79
2022/06/27 05:08:40;;;;;;;25.83;16.63;;;17.80;99.90;;;;;;5034470;28;20041;-78
2022/06/27 05:11:09;;;;;;;29.92;17.23;;;17.80;99.90;;;;;;5044576;28;20075;-78
2022/06/27 05:13:37;;;;;;;24.10;14.70;;;17.90;99.90;;;;;;5051012;28;20052;-78
2022/06/27 05:16:18;;;;;;;20.73;13.38;;;17.90;99.90;;;;;;5034679;28;20041;-78
2022/06/27 05:18:46;;;;;;;;;;;17.90;99.90;;;;;;5045453;28;20036;-77
2022/06/27 05:21:19;;;;;;;18.90;12.90;;;17.80;99.90;;;;;;5034059;28;19951;-78
2022/06/27 05:23:50;;;;;;;14.77;10.27;;;17.90;99.90;;;;;;5020169;28;20046;-78
2022/06/27 05:26:21;;;;;;;22.48;13.13;;;17.80;99.90;;;;;;5010330;28;20054;-77
2022/06/27 05:29:01;;;;;;;15.73;10.63;;;17.80;99.90;;;;;;4975087;28;20144;-79
2022/06/27 05:31:30;;;;;;;18.65;11.43;;;17.80;99.90;;;;;;4953759;28;20051;-78
2022/06/27 05:33:58;;;;;;;18.85;13.50;;;17.80;99.90;;;;;;4969665;28;20091;-78
2022/06/27 05:36:25;;;;;;;22.00;12.75;;;17.80;99.90;;;;;;4966603;28;20501;-78
2022/06/27 05:38:53;;;;;;;23.85;13.38;;;17.90;99.90;;;;;;4971789;28;20047;-78
2022/06/27 05:41:19;;;;;;;18.25;12.55;;;18.00;99.90;;;;;;4970724;28;20046;-79
2022/06/27 05:43:51;;;;;;;27.52;12.93;;;18.00;99.90;;;;;;4971814;28;20043;-76
2022/06/27 05:46:19;;;;;;;22.45;12.30;;;18.00;99.90;;;;;;4991405;28;20061;-78
2022/06/27 05:48:46;;;;;;;25.10;12.80;;;18.20;99.90;;;;;;4973785;28;20050;-77
2022/06/27 05:51:36;;;;;;;11.48;9.60;;;18.40;99.90;;;;;;4983959;28;20046;-78
2022/06/27 05:54:03;;;;;;;12.15;8.73;;;18.40;99.90;;;;;;4997608;28;20037;-78
2022/06/27 05:56:30;;;;;;;13.70;9.30;;;18.20;99.90;;;;;;5026127;28;20050;-77
2022/06/27 05:58:57;;;;;;;13.52;9.07;;;18.10;99.90;;;;;;5013281;28;20044;-78
2022/06/27 06:01:25;;;;;;;13.65;9.95;;;18.10;99.90;;;;;;4989457;28;20045;-78
2022/06/27 06:03:53;;;;;;;13.52;8.80;;;18.10;99.90;;;;;;5014674;28;20062;-78
2022/06/27 06:06:19;;;;;;;15.05;9.32;;;18.10;99.90;;;;;;5024015;28;20059;-77
2022/06/27 06:08:47;;;;;;;10.65;8.02;;;18.20;99.90;;;;;;5060493;28;20044;-77
2022/06/27 06:11:14;;;;;;;8.93;8.02;;;18.30;99.90;;;;;;5059515;28;20037;-77
2022/06/27 06:13:41;;;;;;;12.00;7.57;;;18.30;99.90;;;;;;5052896;28;20051;-78
2022/06/27 06:16:09;;;;;;;13.65;7.13;;;18.30;99.90;;;;;;5045090;28;20045;-78
2022/06/27 06:18:37;;;;;;;13.27;7.70;;;18.50;99.90;;;;;;5041683;28;20051;-77
2022/06/27 06:21:04;;;;;;;8.77;6.95;;;18.50;99.90;;;;;;5036537;28;20046;-79
2022/06/27 06:23:32;;;;;;;7.93;7.00;;;18.60;99.90;;;;;;5038172;28;20037;-83
2022/06/27 06:25:59;;;;;;;8.82;7.40;;;18.60;99.90;;;;;;5045073;28;20474;-84
2022/06/27 06:28:31;;;;;;;10.15;8.48;;;18.60;99.90;;;;;;5048796;28;20033;-83
2022/06/27 06:30:58;;;;;;;10.88;7.97;;;18.50;99.90;;;;;;5050138;28;20517;-83
2022/06/27 06:33:24;;;;;;;11.25;7.05;;;18.40;99.90;;;;;;5042291;28;20045;-83
2022/06/27 06:35:51;;;;;;;9.30;7.68;;;18.40;99.90;;;;;;5051053;28;20044;-83
2022/06/27 06:38:18;;;;;;;9.98;6.85;;;18.40;99.90;;;;;;5040295;28;20025;-84
2022/06/27 06:40:45;;;;;;;9.82;7.32;;;18.50;99.90;;;;;;5050664;28;20038;-85
2022/06/27 06:43:12;;;;;;;12.32;7.18;;;18.60;99.90;;;;;;5047219;28;20037;-85
2022/06/27 06:45:44;;;;;;;9.82;7.68;;;18.90;99.90;;;;;;5037663;28;20044;-85
2022/06/27 06:48:35;;;;;;;8.77;7.25;;;19.00;99.90;;;;;;5042311;28;20045;-85
2022/06/27 06:51:01;;;;;;;6.55;5.75;;;18.90;99.90;;;;;;5042498;28;20478;-85
2022/06/27 06:53:27;;;;;;;11.30;7.07;;;18.80;99.90;;;;;;5033774;28;20029;-84
2022/06/27 06:55:53;;;;;;;7.88;6.72;;;19.00;99.90;;;;;;5040793;28;20022;-85
2022/06/27 06:58:22;;;;;;;10.15;6.00;;;19.10;99.90;;;;;;5057003;28;20393;-85
2022/06/27 07:00:49;;;;;;;5.75;4.93;;;18.80;99.90;;;;;;5033986;28;20032;-86
2022/06/27 07:03:16;;;;;;;8.25;6.60;;;18.90;99.90;;;;;;5032692;28;20041;-87
2022/06/27 07:05:43;;;;;;;8.75;7.18;;;18.70;99.90;;;;;;5035193;28;20591;-84
2022/06/27 07:08:09;;;;;;;11.25;7.03;;;18.70;99.90;;;;;;5033164;28;20042;-85
2022/06/27 07:10:36;;;;;;;8.43;6.88;;;18.80;99.90;;;;;;5033933;28;20033;-85
2022/06/27 07:13:03;;;;;;;10.20;6.80;;;18.80;99.90;;;;;;5032672;28;20360;-85
2022/06/27 07:15:30;;;;;;;8.43;7.38;;;19.00;99.90;;;;;;5034078;28;20056;-85
2022/06/27 07:17:58;;;;;;;10.75;7.50;;;19.00;99.90;;;;;;5040946;28;20455;-78
2022/06/27 07:20:24;;;;;;;7.93;7.05;;;19.10;99.90;;;;;;5040715;28;20033;-77
2022/06/27 07:22:51;;;;;;;8.73;6.78;;;18.90;99.90;;;;;;5050004;28;20033;-77
2022/06/27 07:25:17;;;;;;;9.43;6.32;;;18.90;99.90;;;;;;5037358;28;20030;-75
2022/06/27 07:27:44;;;;;;;8.55;7.15;;;18.90;99.90;;;;;;5032069;28;20071;-78
2022/06/27 07:30:12;;;;;;;10.73;6.82;;;19.00;99.90;;;;;;5035867;28;20048;-79
2022/06/27 07:32:40;;;;;;;9.88;6.53;;;19.00;99.90;;;;;;5039885;28;20021;-78
2022/06/27 07:35:11;;;;;;;8.60;7.03;;;18.90;99.90;;;;;;5041518;28;20037;-77
2022/06/27 07:37:45;;;;;;;10.25;7.38;;;18.80;99.90;;;;;;5040065;28;20029;-76
2022/06/27 07:40:12;;;;;;;11.23;8.02;;;18.90;99.90;;;;;;5044328;28;20033;-76
2022/06/27 07:42:38;;;;;;;12.23;8.02;;;19.00;99.90;;;;;;5045555;28;20025;-78
2022/06/27 07:45:06;;;;;;;10.35;7.68;;;19.00;99.90;;;;;;5042212;28;20060;-76
2022/06/27 07:47:32;;;;;;;11.43;8.30;;;19.00;99.90;;;;;;5041168;28;20402;-78
2022/06/27 07:49:59;;;;;;;12.02;8.82;;;19.10;99.90;;;;;;5054988;28;20025;-79
2022/06/27 07:52:25;;;;;;;14.27;8.95;;;19.10;99.90;;;;;;5046314;28;20034;-79
2022/06/27 07:54:51;;;;;;;12.43;9.02;;;19.20;99.90;;;;;;5050180;28;20025;-77
2022/06/27 07:57:18;;;;;;;9.95;8.90;;;19.20;99.90;;;;;;5046504;28;20045;-77
2022/06/27 07:59:44;;;;;;;12.07;7.40;;;19.20;99.90;;;;;;5041565;28;20021;-77
2022/06/27 08:02:11;;;;;;;9.32;7.70;;;19.00;99.90;;;;;;5031215;28;20215;-78
2022/06/27 08:04:41;;;;;;;11.80;8.38;;;19.20;99.90;;;;;;5037186;28;20033;-78
2022/06/27 08:07:07;;;;;;;8.52;6.35;;;19.30;99.90;;;;;;5035361;28;20033;-77
2022/06/27 08:09:36;;;;;;;9.40;7.15;;;19.20;99.90;;;;;;5037185;28;20040;-78
2022/06/27 08:12:02;;;;;;;7.43;5.70;;;19.30;99.90;;;;;;5044037;28;20029;-78
2022/06/27 08:14:29;;;;;;;6.72;5.95;;;19.20;99.90;;;;;;5053214;28;20056;-78
2022/06/27 08:16:57;;;;;;;9.05;6.68;;;19.30;99.90;;;;;;5045486;28;20021;-79
2022/06/27 08:19:24;;;;;;;8.57;6.25;;;19.30;99.90;;;;;;5045574;28;20025;-80
2022/06/27 08:21:50;;;;;;;5.97;5.38;;;19.30;99.90;;;;;;5046502;28;20033;-78
2022/06/27 08:24:17;;;;;;;9.65;5.53;;;19.20;99.90;;;;;;5034997;28;20037;-78
2022/06/27 08:26:44;;;;;;;7.45;6.03;;;19.20;99.90;;;;;;5037661;28;20045;-78
2022/06/27 08:29:11;;;;;;;7.40;6.38;;;19.00;99.90;;;;;;5037404;28;20499;-78
2022/06/27 08:31:41;;;;;;;8.10;6.72;;;19.10;99.90;;;;;;5044656;28;20382;-78
2022/06/27 08:34:08;;;;;;;8.90;7.32;;;19.30;99.90;;;;;;5038713;28;20033;-79
2022/06/27 08:36:36;;;;;;;8.68;7.07;;;19.30;99.90;;;;;;5035605;28;20525;-78
2022/06/27 08:39:05;;;;;;;8.98;6.40;;;19.30;99.90;;;;;;5035402;28;20048;-78
2022/06/27 08:41:32;;;;;;;8.20;7.35;;;19.10;99.90;;;;;;5037979;28;20360;-78
2022/06/27 08:44:00;;;;;;;7.78;6.95;;;19.20;99.90;;;;;;5040562;28;20033;-78
2022/06/27 08:46:30;;;;;;;10.02;7.15;;;19.10;99.90;;;;;;5034842;28;20025;-78
2022/06/27 08:48:57;;;;;;;15.30;9.00;;;19.10;99.90;;;;;;5045824;28;20025;-78
2022/06/27 08:51:24;;;;;;;8.60;7.47;;;19.20;99.90;;;;;;5050920;28;20032;-77
2022/06/27 08:53:52;;;;;;;9.60;7.95;;;19.50;99.90;;;;;;5048694;28;20454;-78
2022/06/27 08:56:19;;;;;;;9.02;8.07;;;19.80;99.90;;;;;;5044466;28;20058;-78
2022/06/27 08:58:47;;;;;;;7.50;6.70;;;20.00;99.90;;;;;;5039545;28;20030;-79
2022/06/27 09:01:16;;;;;;;9.52;6.60;;;20.00;99.90;;;;;;5047133;28;20390;-79
2022/06/27 09:03:58;;;;;;;8.27;6.07;;;20.20;99.90;;;;;;5035192;28;20048;-78
2022/06/27 09:06:31;;;;;;;8.85;6.20;;;20.50;99.90;;;;;;5048753;28;20052;-79
2022/06/27 09:09:05;;;;;;;6.20;3.78;;;20.90;99.90;;;;;;5041811;28;20045;-80
2022/06/27 09:11:35;;;;;;;8.02;3.42;;;20.90;99.90;;;;;;5034264;28;20044;-79
2022/06/27 09:14:03;;;;;;;5.23;4.00;;;20.60;99.90;;;;;;5055119;28;20049;-78
2022/06/27 09:16:30;;;;;;;9.98;4.22;;;20.50;99.90;;;;;;5035998;28;20510;-79
2022/06/27 09:18:56;;;;;;;5.60;4.43;;;20.20;99.90;;;;;;5045920;28;20037;-79
2022/06/27 09:21:24;;;;;;;4.22;3.55;;;20.30;99.90;;;;;;5033941;28;20471;-79
2022/06/27 09:24:01;;;;;;;5.60;3.33;;;20.70;99.90;;;;;;5037521;28;20394;-78
2022/06/27 09:26:34;;;;;;;5.00;3.33;;;21.20;99.90;;;;;;5041097;28;20034;-78
2022/06/27 09:29:06;;;;;;;5.50;2.38;;;21.30;99.90;;;;;;5034139;28;20037;-78
2022/06/27 09:31:38;;;;;;;5.68;2.95;;;21.00;99.90;;;;;;5033275;28;20037;-78
2022/06/27 09:34:04;;;;;;;4.63;2.85;;;20.90;99.90;;;;;;5033905;28;20033;-78
2022/06/27 09:36:33;;;;;;;3.25;2.80;;;21.30;99.90;;;;;;5049608;28;20474;-77
2022/06/27 09:39:01;;;;;;;3.53;2.38;;;22.10;99.90;;;;;;5034699;28;20025;-76
2022/06/27 09:41:30;;;;;;;3.03;2.53;;;22.10;99.90;;;;;;5038692;28;20475;-78
2022/06/27 09:44:10;;;;;;;5.55;2.75;;;22.00;99.90;;;;;;5066186;28;20038;-76
2022/06/27 09:46:42;;;;;;;7.70;3.08;;;22.10;99.90;;;;;;5040430;28;20025;-77
2022/06/27 09:49:15;;;;;;;4.70;3.08;;;22.40;99.90;;;;;;5040308;28;20057;-76
2022/06/27 09:51:42;;;;;;;4.10;2.88;;;22.60;99.90;;;;;;5042134;28;20518;-77
2022/06/27 09:54:10;;;;;;;4.95;2.53;;;22.40;99.90;;;;;;5042113;28;20033;-78
2022/06/27 09:56:42;;;;;;;3.33;2.42;;;22.20;99.90;;;;;;5040460;28;20040;-77
2022/06/27 09:59:12;;;;;;;4.88;2.63;;;21.90;99.90;;;;;;5034434;28;20034;-76
2022/06/27 10:01:40;;;;;;;;;;;21.60;99.90;;;;;;5043063;28;20034;-77
2022/06/27 10:04:07;;;;;;;3.75;2.45;;;21.60;99.90;;;;;;5034447;28;19916;-77
2022/06/27 10:06:36;;;;;;;4.25;2.13;;;21.50;99.90;;;;;;5032975;28;20033;-76
2022/06/27 10:09:05;;;;;;;3.95;2.33;;;21.30;99.90;;;;;;5047797;28;20379;-77
2022/06/27 10:11:32;;;;;;;7.63;2.17;;;21.40;99.90;;;;;;5035759;28;20347;-77
2022/06/27 10:14:20;;;;;;;3.28;2.25;;;21.60;99.90;;;;;;5032706;28;20061;-78
2022/06/27 10:16:57;;;;;;;2.72;1.90;;;22.00;99.90;;;;;;5032661;28;20045;-77
2022/06/27 10:19:29;;;;;;;3.55;1.73;;;22.30;99.90;;;;;;5033113;28;20029;-77
2022/06/27 10:21:56;;;;;;;2.90;2.08;;;22.40;99.90;;;;;;5032610;28;20056;-78
2022/06/27 10:24:29;;;;;;;5.63;2.70;;;22.30;99.90;;;;;;5033935;28;20037;-76
2022/06/27 10:26:57;;;;;;;2.92;2.40;;;21.90;99.90;;;;;;5050903;28;20041;-78
2022/06/27 10:29:46;;;;;;;4.47;2.67;;;21.60;99.90;;;;;;5039230;28;20025;-78
2022/06/27 10:32:35;;;;;;;3.65;2.60;;;21.50;99.90;;;;;;5031931;28;20048;-77
2022/06/27 10:35:02;;;;;;;5.95;3.08;;;21.10;99.90;;;;;;5026546;28;20121;-77
2022/06/27 10:37:28;;;;;;;4.93;2.75;;;21.00;99.90;;;;;;5034807;28;20300;-77
2022/06/27 10:40:20;;;;;;;3.35;1.77;;;20.90;99.90;;;;;;5037132;28;20052;-76
2022/06/27 10:42:54;;;;;;;2.97;2.17;;;20.90;99.90;;;;;;5032242;28;20029;-76
2022/06/27 10:45:21;;;;;;;6.35;1.95;;;20.90;99.90;;;;;;5044216;28;20059;-77
2022/06/27 10:47:55;;;;;;;2.75;1.77;;;20.90;99.90;;;;;;5044876;28;20049;-76
2022/06/27 10:50:26;;;;;;;2.58;2.03;;;20.90;99.90;;;;;;5033348;28;20030;-76
2022/06/27 10:53:18;;;;;;;6.57;2.13;;;21.00;99.90;;;;;;5038066;28;20033;-75
2022/06/27 10:55:45;;;;;;;3.22;2.13;;;21.00;99.90;;;;;;5036552;28;20044;-76
2022/06/27 10:58:22;;;;;;;3.50;2.38;;;21.00;99.90;;;;;;5037606;28;20041;-75
2022/06/27 11:00:49;;;;;;;2.85;2.20;;;21.00;99.90;;;;;;5037388;28;20034;-76
2022/06/27 11:03:24;;;;;;;2.50;1.88;;;21.00;99.90;;;;;;5032626;28;20045;-76
2022/06/27 11:05:58;;;;;;;2.45;1.70;;;20.80;99.90;;;;;;5035651;28;20045;-78
2022/06/27 11:08:25;;;;;;;2.03;1.63;;;20.80;99.90;;;;;;5039843;28;20033;-76
2022/06/27 11:10:52;;;;;;;3.50;2.15;;;20.70;99.90;;;;;;5036206;28;20060;-77
2022/06/27 11:13:35;;;;;;;2.70;1.73;;;20.70;99.90;;;;;;5035087;28;20052;-78
2022/06/27 11:16:05;;;;;;;4.32;1.80;;;20.60;99.90;;;;;;5033757;28;20379;-77
2022/06/27 11:18:41;;;;;;;;;;;20.60;99.90;;;;;;5035184;28;20068;-78
2022/06/27 11:21:09;;;;;;;3.92;2.63;;;20.40;99.90;;;;;;5046604;28;20278;-76
2022/06/27 11:23:55;;;;;;;3.53;1.88;;;20.30;99.90;;;;;;5047015;28;21139;-78
2022/06/27 11:26:26;;;;;;;5.10;2.30;;;20.30;99.90;;;;;;5043966;28;20048;-76
2022/06/27 11:34:26;;;;;;;4.25;2.53;;;20.70;99.90;;;;;;5036220;28;20033;-77
2022/06/27 11:36:54;;;;;;;4.68;2.83;;;20.80;99.90;;;;;;5038483;28;20029;-77
2022/06/27 11:39:30;;;;;;;5.28;3.15;;;21.00;99.90;;;;;;5036355;28;20513;-77
2022/06/27 11:42:10;;;;;;;4.82;3.10;;;21.20;99.90;;;;;;5049978;28;20033;-79
2022/06/27 11:44:38;;;;;;;4.53;2.50;;;21.50;99.90;;;;;;5050576;28;20036;-78
2022/06/27 11:47:06;;;;;;;4.85;3.17;;;21.80;99.90;;;;;;5048155;28;20344;-77
2022/06/27 11:49:35;;;;;;;3.83;2.53;;;22.40;99.90;;;;;;5045263;28;20025;-79
2022/06/27 11:52:05;;;;;;;2.85;2.00;;;22.80;99.90;;;;;;5042619;28;20046;-78
2022/06/27 11:54:46;;;;;;;9.75;2.10;;;23.40;99.90;;;;;;5046947;28;20037;-78
2022/06/27 11:57:25;;;;;;;2.60;1.90;;;23.50;99.90;;;;;;5051493;28;20041;-77
2022/06/27 11:59:53;;;;;;;2.72;1.50;;;23.40;99.90;;;;;;5039698;28;20041;-78
2022/06/27 12:02:36;;;;;;;3.55;1.42;;;23.10;99.90;;;;;;5041092;28;20414;-79
2022/06/27 12:05:13;;;;;;;1.60;1.20;;;22.80;99.90;;;;;;5035367;28;20044;-77
2022/06/27 12:08:04;;;;;;;2.30;1.15;;;22.40;99.90;;;;;;5035905;28;20037;-78
2022/06/27 12:11:16;;;;;;;2.80;1.23;;;22.30;99.90;;;;;;5041254;28;20033;-78
2022/06/27 12:13:34;;;;;;;2.72;1.33;;;22.40;99.90;;;;;;5034688;28;20072;-79
2022/06/27 12:16:02;;;;;;;2.10;1.70;;;22.40;99.90;;;;;;5040564;28;20462;-80
2022/06/27 12:18:41;;;;;;;3.13;1.45;;;22.40;99.90;;;;;;5047566;28;20033;-80
2022/06/27 12:21:08;;;;;;;2.60;1.35;;;22.40;99.90;;;;;;5044724;28;20033;-81
2022/06/27 12:23:35;;;;;;;1.52;0.93;;;22.30;99.90;;;;;;5048250;28;20037;-80
2022/06/27 12:26:01;;;;;;;1.73;1.10;;;22.20;99.90;;;;;;5039194;28;20034;-81
2022/06/27 12:28:28;;;;;;;1.77;1.10;;;22.10;99.90;;;;;;5040222;28;20037;-81
2022/06/27 12:30:54;;;;;;;3.17;1.20;;;22.10;99.90;;;;;;5036865;28;20045;-79
2022/06/27 12:33:21;;;;;;;3.47;1.70;;;22.00;99.90;;;;;;5043307;28;20045;-80
2022/06/27 12:35:47;;;;;;;2.08;1.33;;;21.90;99.90;;;;;;5041630;28;20462;-79
2022/06/27 12:38:13;;;;;;;3.35;1.05;;;21.80;99.90;;;;;;5051901;28;20056;-79
2022/06/27 12:40:39;;;;;;;2.30;1.45;;;21.50;99.90;;;;;;5050780;28;20060;-79
2022/06/27 12:43:06;;;;;;;1.33;1.10;;;21.50;99.90;;;;;;5035430;28;20459;-79
2022/06/27 12:45:34;;;;;;;2.50;1.55;;;21.60;99.90;;;;;;5035542;28;20394;-79
2022/06/27 12:48:06;;;;;;;2.28;1.58;;;21.50;99.90;;;;;;5034614;28;20517;-79
2022/06/27 12:50:32;;;;;;;5.65;1.85;;;21.50;99.90;;;;;;5056418;28;20037;-79
2022/06/27 12:52:59;;;;;;;2.30;1.40;;;21.50;99.90;;;;;;5041666;28;20025;-79
2022/06/27 12:55:25;;;;;;;3.17;1.73;;;21.60;99.90;;;;;;5036204;28;20042;-79
2022/06/27 12:57:52;;;;;;;2.45;1.90;;;21.70;99.90;;;;;;5035066;28;20038;-78
2022/06/27 13:00:18;;;;;;;3.25;2.00;;;21.70;99.90;;;;;;5034332;28;20222;-79